Ames, Nebraska
Current Conditions -  °F | °C
As of 2:55 AM on Monday 20 Oct 2014 (Local Time) from KFET Reporting Station
Clear Clear  
Wind Chill: 45°   Ceiling: Unl
Heat Index: 48°   Visibility: 10mi
Dew Point: 46°   Wind: 6mph
Humidity: 92%   Direction: 300°WNW
Pressure: 29.99"   Gusts: NA
Location:  41.45°N, 96.63°W
Report Text: KFET 200755Z AUTO 30005KT 10SM CLR 09/08 A2999 RMK AO2 T00870075
Loading
Personal Weather Stations






























Interactive Weather Map
Tropical Storm Tracking
New forecast layout! Learn more

10-Day Weather Forecast

Advertisements
Track Severe Weather on mobile